Time;durP1;ratioP1;P1;durP2;ratioP2;P2;SDS_P1;SDS_P2;PMS_P1;PMS_P2;Temp;Humidity;BMP_temperature;BMP_pressure;BME280_temperature;BME280_humidity;BME280_pressure;Samples;Min_cycle;Max_cycle;Signal;HPM_P1;HPM_P2
2023/08/11 00:00:50;;;;;;;2.63;2.13;;;22.80;94.80;;;;;;5058302;28;20231;-88
2023/08/11 00:03:16;;;;;;;2.77;2.30;;;22.80;94.80;;;;;;5066326;28;20186;-88
2023/08/11 00:05:42;;;;;;;3.77;2.30;;;22.70;94.80;;;;;;5063037;28;20207;-88
2023/08/11 00:08:08;;;;;;;2.47;2.27;;;22.70;94.80;;;;;;5064439;28;20180;-88
2023/08/11 00:10:35;;;;;;;2.53;2.20;;;22.70;94.80;;;;;;5062743;28;20487;-88
2023/08/11 00:13:01;;;;;;;2.40;2.20;;;22.70;94.80;;;;;;5046625;28;20176;-89
2023/08/11 00:15:28;;;;;;;2.77;2.30;;;22.70;94.80;;;;;;5064276;28;20176;-88
2023/08/11 00:18:00;;;;;;;3.30;2.20;;;22.70;94.90;;;;;;5062214;28;20195;-88
2023/08/11 00:20:29;;;;;;;2.73;2.40;;;22.70;94.90;;;;;;5060896;28;20187;-89
2023/08/11 00:22:55;;;;;;;2.70;2.50;;;22.70;94.90;;;;;;5063453;28;20232;-88
2023/08/11 00:25:24;;;;;;;3.30;2.50;;;22.60;94.90;;;;;;5061769;28;20227;-88
2023/08/11 00:27:50;;;;;;;2.60;2.40;;;22.70;94.90;;;;;;5046941;28;20169;-89
2023/08/11 00:30:15;;;;;;;4.90;2.53;;;22.60;94.90;;;;;;5059860;28;20276;-89
2023/08/11 00:33:10;;;;;;;3.33;2.63;;;22.60;94.90;;;;;;5045964;28;20344;-88
2023/08/11 00:35:36;;;;;;;3.10;2.50;;;22.60;94.90;;;;;;5048261;28;20199;-89
2023/08/11 00:38:01;;;;;;;4.77;2.40;;;22.60;94.90;;;;;;5062938;28;20172;-89
2023/08/11 00:40:27;;;;;;;2.70;2.20;;;22.60;94.90;;;;;;5061274;28;20188;-88
2023/08/11 00:42:53;;;;;;;2.87;2.37;;;22.60;94.90;;;;;;5043847;28;20173;-89
2023/08/11 00:45:19;;;;;;;3.00;2.50;;;22.60;94.90;;;;;;5062036;28;20525;-88
2023/08/11 00:47:45;;;;;;;3.50;2.47;;;22.60;94.90;;;;;;5060745;28;20278;-88
2023/08/11 00:50:11;;;;;;;3.80;2.40;;;22.60;94.90;;;;;;5060984;28;20440;-88
2023/08/11 00:52:38;;;;;;;3.70;2.60;;;22.60;94.90;;;;;;5061637;28;20249;-88
2023/08/11 00:55:07;;;;;;;3.03;2.43;;;22.50;94.90;;;;;;5062926;28;20183;-88
2023/08/11 00:57:34;;;;;;;2.60;2.20;;;22.50;95.00;;;;;;5056384;28;20599;-88
2023/08/11 01:00:11;;;;;;;3.00;2.50;;;22.50;95.00;;;;;;5062498;28;20184;-89
2023/08/11 01:02:36;;;;;;;2.80;2.60;;;22.50;95.00;;;;;;5062883;28;20210;-89
2023/08/11 01:05:04;;;;;;;2.83;2.43;;;22.50;95.00;;;;;;5060305;28;20203;-88
2023/08/11 01:07:52;;;;;;;4.83;2.60;;;22.40;95.00;;;;;;5059096;28;20180;-88
2023/08/11 01:10:46;;;;;;;4.20;2.67;;;22.40;95.00;;;;;;5059569;28;20268;-89
2023/08/11 01:13:19;;;;;;;2.77;2.57;;;22.40;95.10;;;;;;5063653;28;20296;-89
2023/08/11 01:15:58;;;;;;;4.67;2.57;;;22.40;95.10;;;;;;5059374;28;20192;-88
2023/08/11 01:18:24;;;;;;;4.03;2.40;;;22.40;95.10;;;;;;5056039;28;20187;-88
2023/08/11 01:20:58;;;;;;;2.60;2.40;;;22.40;95.10;;;;;;5062424;28;20464;-89
2023/08/11 01:23:25;;;;;;;2.60;2.40;;;22.40;95.10;;;;;;5054611;28;20192;-88
2023/08/11 01:25:54;;;;;;;3.70;2.60;;;22.30;95.10;;;;;;5062523;28;20555;-89
2023/08/11 01:28:20;;;;;;;3.37;2.43;;;22.40;95.10;;;;;;5061901;28;20527;-89
2023/08/11 01:30:48;;;;;;;2.73;2.50;;;22.30;95.00;;;;;;5061509;28;20182;-88
2023/08/11 01:33:14;;;;;;;3.10;2.80;;;22.30;95.00;;;;;;5059979;28;20275;-89
2023/08/11 01:35:40;;;;;;;4.23;2.73;;;22.30;95.10;;;;;;5064437;28;20195;-89
2023/08/11 01:38:08;;;;;;;2.50;2.30;;;22.30;95.10;;;;;;5062360;28;20183;-88
2023/08/11 01:40:34;;;;;;;2.70;2.50;;;22.30;95.10;;;;;;5062691;28;20557;-88
2023/08/11 01:43:02;;;;;;;2.90;2.50;;;22.30;95.10;;;;;;5064086;28;20672;-88
2023/08/11 01:45:29;;;;;;;4.20;2.70;;;22.20;95.10;;;;;;5063390;28;20219;-89
2023/08/11 01:47:56;;;;;;;3.97;2.40;;;22.30;95.10;;;;;;5062933;28;20179;-89
2023/08/11 01:50:22;;;;;;;3.17;2.30;;;22.20;95.10;;;;;;5066082;28;20475;-88
2023/08/11 01:52:49;;;;;;;3.10;2.50;;;22.20;95.10;;;;;;5058804;28;20184;-89
2023/08/11 01:55:16;;;;;;;3.53;2.60;;;22.20;95.10;;;;;;5060127;28;20189;-88
2023/08/11 01:57:42;;;;;;;2.80;2.50;;;22.20;95.10;;;;;;5061049;28;20179;-88
2023/08/11 02:00:10;;;;;;;4.07;2.53;;;22.20;95.10;;;;;;5062568;28;20260;-88
2023/08/11 02:02:37;;;;;;;3.53;2.77;;;22.20;95.10;;;;;;5064190;28;20183;-88
2023/08/11 02:05:06;;;;;;;3.83;2.77;;;22.20;95.10;;;;;;5060404;28;20212;-88
2023/08/11 02:07:32;;;;;;;4.27;2.80;;;22.20;95.10;;;;;;5063040;28;20506;-88
2023/08/11 02:09:57;;;;;;;2.57;2.27;;;22.20;95.10;;;;;;5057479;28;20179;-88
2023/08/11 02:12:23;;;;;;;2.60;2.40;;;22.20;95.10;;;;;;5061557;28;20176;-88
2023/08/11 02:14:49;;;;;;;2.90;2.27;;;22.20;95.10;;;;;;5061074;28;20211;-88
2023/08/11 02:17:15;;;;;;;3.83;2.30;;;22.10;95.10;;;;;;5060769;28;20654;-88
2023/08/11 02:19:40;;;;;;;3.23;2.40;;;22.10;95.10;;;;;;5059668;28;20656;-88
2023/08/11 02:22:06;;;;;;;2.77;2.57;;;22.10;95.10;;;;;;5064631;28;20188;-89
2023/08/11 02:24:32;;;;;;;2.30;2.10;;;22.10;95.00;;;;;;5063641;28;20230;-89
2023/08/11 02:26:57;;;;;;;2.30;2.10;;;22.10;95.00;;;;;;5060501;28;20184;-89
2023/08/11 02:29:24;;;;;;;4.17;2.27;;;22.10;95.00;;;;;;5058213;28;20176;-89
2023/08/11 02:31:50;;;;;;;2.40;2.20;;;22.10;95.10;;;;;;5061245;28;20211;-89
2023/08/11 02:34:15;;;;;;;2.33;2.13;;;22.10;95.10;;;;;;5060077;28;20542;-89
2023/08/11 02:36:41;;;;;;;3.33;2.53;;;22.10;95.00;;;;;;5057619;28;20188;-89
2023/08/11 02:39:07;;;;;;;2.50;2.30;;;22.10;95.10;;;;;;5064658;28;20249;-89
2023/08/11 02:41:34;;;;;;;2.50;2.30;;;22.00;95.10;;;;;;5059832;28;20180;-88
2023/08/11 02:44:00;;;;;;;2.97;2.33;;;22.00;95.10;;;;;;5060907;28;20277;-88
2023/08/11 02:46:26;;;;;;;2.83;2.40;;;22.00;95.00;;;;;;5060056;28;20534;-88
2023/08/11 02:48:52;;;;;;;2.70;2.47;;;22.00;95.00;;;;;;5064962;28;20530;-88
2023/08/11 02:51:18;;;;;;;2.87;2.43;;;22.00;95.10;;;;;;5060464;28;20187;-88
2023/08/11 02:53:44;;;;;;;2.87;2.33;;;22.00;95.00;;;;;;5061619;28;20212;-89
2023/08/11 02:56:14;;;;;;;3.53;2.43;;;22.00;95.10;;;;;;5059018;28;20214;-88
2023/08/11 02:58:43;;;;;;;3.33;2.67;;;22.00;95.10;;;;;;5062952;28;20182;-88
2023/08/11 03:01:09;;;;;;;2.97;2.50;;;22.00;95.00;;;;;;5061103;28;20198;-88
2023/08/11 03:03:34;;;;;;;3.43;2.40;;;22.00;95.00;;;;;;5061266;28;20181;-89
2023/08/11 03:06:00;;;;;;;2.50;2.30;;;22.00;95.00;;;;;;5064678;28;20628;-89
2023/08/11 03:08:27;;;;;;;3.10;2.40;;;22.00;95.00;;;;;;5065951;28;20309;-89
2023/08/11 03:10:53;;;;;;;2.37;2.17;;;21.90;94.90;;;;;;5061935;28;20354;-88
2023/08/11 03:13:20;;;;;;;3.27;2.20;;;21.90;95.00;;;;;;5059264;28;20431;-89
2023/08/11 03:15:46;;;;;;;2.57;2.37;;;21.90;95.30;;;;;;5060893;28;20324;-88
2023/08/11 03:18:12;;;;;;;2.40;2.20;;;21.90;95.00;;;;;;5066042;28;20176;-89
2023/08/11 03:20:38;;;;;;;2.47;2.20;;;21.90;95.00;;;;;;5066157;28;20441;-89
2023/08/11 03:23:04;;;;;;;3.17;2.30;;;21.90;95.00;;;;;;5053838;28;20184;-89
2023/08/11 03:25:30;;;;;;;3.03;2.00;;;21.80;95.00;;;;;;5066148;28;20326;-89
2023/08/11 03:27:56;;;;;;;2.30;2.10;;;21.80;95.10;;;;;;5063503;28;20187;-88
2023/08/11 03:30:23;;;;;;;2.53;2.20;;;21.80;95.10;;;;;;5064521;28;20186;-89
2023/08/11 03:32:48;;;;;;;2.40;2.20;;;21.80;95.00;;;;;;5063820;28;20180;-89
2023/08/11 03:35:14;;;;;;;3.03;2.50;;;21.80;95.00;;;;;;5063349;28;20191;-88
2023/08/11 03:37:43;;;;;;;2.77;2.50;;;21.80;95.10;;;;;;5062673;28;20183;-88
2023/08/11 03:40:12;;;;;;;2.20;1.93;;;21.80;95.10;;;;;;5063483;28;20233;-88
2023/08/11 03:42:40;;;;;;;2.27;2.07;;;21.80;95.10;;;;;;5060063;28;20244;-88
2023/08/11 03:45:06;;;;;;;3.03;2.33;;;21.70;95.10;;;;;;5064213;28;20266;-89
2023/08/11 03:47:32;;;;;;;2.60;2.40;;;21.70;95.00;;;;;;5047829;28;20191;-89
2023/08/11 03:49:58;;;;;;;2.57;2.30;;;21.70;95.10;;;;;;5062739;28;20206;-88
2023/08/11 03:52:24;;;;;;;3.10;2.07;;;21.70;95.10;;;;;;5060589;28;20184;-88
2023/08/11 03:54:50;;;;;;;2.43;2.20;;;21.70;95.00;;;;;;5062792;28;20226;-88
2023/08/11 03:57:17;;;;;;;2.20;2.00;;;21.70;95.00;;;;;;5062472;28;20180;-88
2023/08/11 03:59:43;;;;;;;3.27;2.10;;;21.70;95.00;;;;;;5064587;28;20187;-89
2023/08/11 04:02:08;;;;;;;2.00;1.80;;;21.70;95.00;;;;;;5060879;28;20485;-88
2023/08/11 04:04:34;;;;;;;3.30;2.10;;;21.70;95.00;;;;;;5061301;28;20302;-89
2023/08/11 04:07:01;;;;;;;3.40;1.93;;;21.70;95.00;;;;;;5062044;28;20279;-89
2023/08/11 04:09:26;;;;;;;2.50;2.20;;;21.70;95.00;;;;;;5055802;28;20183;-88
2023/08/11 04:11:52;;;;;;;2.70;2.20;;;21.60;95.00;;;;;;5061266;28;20190;-88
2023/08/11 04:14:17;;;;;;;3.63;2.23;;;21.60;95.00;;;;;;5056983;28;20317;-89
2023/08/11 04:16:43;;;;;;;2.43;1.90;;;21.60;95.00;;;;;;5064074;28;20207;-89
2023/08/11 04:19:10;;;;;;;2.20;2.00;;;21.60;95.00;;;;;;5060134;28;20214;-89
2023/08/11 04:21:36;;;;;;;2.40;2.20;;;21.60;95.00;;;;;;5056332;28;20264;-88
2023/08/11 04:24:02;;;;;;;4.37;2.20;;;21.60;95.00;;;;;;5060304;28;20549;-88
2023/08/11 04:26:28;;;;;;;3.83;2.10;;;21.60;95.10;;;;;;5052542;28;20405;-88
2023/08/11 04:28:54;;;;;;;3.00;2.23;;;21.60;95.20;;;;;;5061184;28;20436;-89
2023/08/11 04:31:19;;;;;;;3.00;2.37;;;21.50;95.10;;;;;;5060446;28;20665;-89
2023/08/11 04:33:45;;;;;;;2.20;2.00;;;21.50;95.10;;;;;;5056976;28;20175;-89
2023/08/11 04:36:11;;;;;;;2.93;2.00;;;21.50;95.20;;;;;;5058911;28;20207;-89
2023/08/11 04:38:37;;;;;;;2.80;2.07;;;21.50;95.50;;;;;;5058770;28;20239;-89
2023/08/11 04:41:02;;;;;;;2.60;2.00;;;21.50;95.20;;;;;;5062484;28;20183;-89
2023/08/11 04:43:29;;;;;;;2.43;1.93;;;21.50;95.20;;;;;;5060505;28;20283;-88
2023/08/11 04:45:55;;;;;;;3.13;2.40;;;21.50;95.10;;;;;;5063427;28;20207;-89
2023/08/11 04:48:21;;;;;;;3.93;2.30;;;21.50;95.10;;;;;;5059620;28;20577;-89
2023/08/11 04:50:50;;;;;;;3.60;2.40;;;21.50;95.10;;;;;;5054909;28;20206;-89
2023/08/11 04:53:15;;;;;;;2.50;2.30;;;21.50;95.00;;;;;;5062419;28;20202;-89
2023/08/11 04:55:41;;;;;;;3.40;2.70;;;21.50;95.10;;;;;;5053354;28;20199;-89
2023/08/11 04:58:07;;;;;;;3.20;2.80;;;21.50;95.10;;;;;;5057159;28;20210;-88
2023/08/11 05:00:53;;;;;;;3.53;2.50;;;21.50;95.00;;;;;;5057523;28;20191;-89
2023/08/11 05:03:19;;;;;;;3.13;2.30;;;21.50;95.10;;;;;;5060349;28;20717;-89
2023/08/11 05:05:45;;;;;;;2.60;2.40;;;21.60;95.20;;;;;;5052275;28;20211;-89
2023/08/11 05:08:10;;;;;;;3.07;2.30;;;21.60;95.00;;;;;;5058459;28;20175;-89
2023/08/11 05:10:36;;;;;;;3.17;2.53;;;21.60;95.00;;;;;;5054123;28;20275;-89
2023/08/11 05:13:03;;;;;;;2.57;2.37;;;21.70;94.90;;;;;;5057329;28;20202;-89
2023/08/11 05:15:28;;;;;;;3.13;2.50;;;21.70;94.80;;;;;;5057722;28;20206;-89
2023/08/11 05:17:54;;;;;;;3.13;2.27;;;21.80;94.60;;;;;;5055521;28;20191;-89
2023/08/11 05:20:21;;;;;;;2.50;2.17;;;21.80;94.60;;;;;;5058689;28;20187;-89
2023/08/11 05:22:47;;;;;;;2.50;2.30;;;21.80;94.50;;;;;;5057811;28;20354;-89
2023/08/11 05:25:13;;;;;;;2.97;2.20;;;21.80;94.50;;;;;;5059040;28;20251;-89
2023/08/11 05:27:39;;;;;;;2.57;2.20;;;21.90;94.50;;;;;;5057668;28;20778;-89
2023/08/11 05:30:07;;;;;;;3.57;2.27;;;21.90;94.30;;;;;;5058334;28;20179;-89
2023/08/11 05:32:33;;;;;;;3.60;2.40;;;22.00;94.10;;;;;;5058966;28;20373;-89
2023/08/11 05:34:58;;;;;;;2.63;2.40;;;22.00;94.00;;;;;;5052625;28;20220;-89
2023/08/11 05:37:24;;;;;;;3.83;2.30;;;22.10;93.80;;;;;;5055252;28;20690;-89
2023/08/11 05:39:53;;;;;;;2.50;2.30;;;22.10;93.60;;;;;;5048336;28;20604;-89
2023/08/11 05:42:20;;;;;;;2.27;2.07;;;22.20;93.50;;;;;;5054074;28;20378;-89
2023/08/11 05:44:46;;;;;;;4.00;2.03;;;22.20;93.30;;;;;;5052613;28;20215;-89
2023/08/11 05:47:12;;;;;;;2.40;2.20;;;22.20;93.10;;;;;;5055296;28;20182;-90
2023/08/11 05:49:38;;;;;;;2.30;2.03;;;22.30;93.10;;;;;;5052696;28;20253;-89
2023/08/11 05:52:04;;;;;;;3.17;2.30;;;22.30;92.90;;;;;;5051543;28;20179;-88
2023/08/11 05:54:30;;;;;;;5.63;2.37;;;22.40;92.90;;;;;;5052609;28;20375;-89
2023/08/11 05:56:55;;;;;;;2.43;2.23;;;22.40;93.20;;;;;;5053084;28;20218;-89
2023/08/11 05:59:21;;;;;;;2.43;2.23;;;22.50;92.80;;;;;;5053994;28;20465;-89
2023/08/11 06:01:47;;;;;;;4.07;2.10;;;22.50;92.80;;;;;;5048887;28;20196;-89
2023/08/11 06:04:13;;;;;;;3.30;2.40;;;22.50;92.80;;;;;;5052364;28;20480;-89
2023/08/11 06:06:39;;;;;;;4.50;2.30;;;22.50;92.80;;;;;;5047398;28;20192;-89
2023/08/11 06:09:05;;;;;;;3.23;2.30;;;22.60;92.80;;;;;;5047324;28;20573;-89
2023/08/11 06:11:31;;;;;;;3.07;2.53;;;22.60;92.80;;;;;;5053268;28;20212;-90
2023/08/11 06:13:56;;;;;;;5.17;2.50;;;22.70;92.70;;;;;;5057078;28;20188;-89
2023/08/11 06:16:22;;;;;;;2.43;2.23;;;22.70;92.70;;;;;;5056143;28;20184;-89
2023/08/11 06:18:48;;;;;;;3.77;2.17;;;22.70;92.70;;;;;;5054524;28;20388;-89
2023/08/11 06:21:17;;;;;;;2.83;2.33;;;22.80;92.60;;;;;;5055631;28;20190;-90
2023/08/11 06:23:43;;;;;;;2.93;2.50;;;22.80;92.50;;;;;;5053462;28;20205;-90
2023/08/11 06:26:08;;;;;;;2.90;2.50;;;22.90;92.40;;;;;;5053774;28;20216;-90
2023/08/11 06:28:34;;;;;;;4.77;2.47;;;22.90;92.40;;;;;;5057212;28;20225;-90
2023/08/11 06:31:02;;;;;;;4.90;2.63;;;22.90;92.40;;;;;;5058343;28;20180;-90
2023/08/11 06:33:27;;;;;;;4.63;2.53;;;23.00;92.30;;;;;;5055031;28;20257;-90
2023/08/11 06:35:53;;;;;;;2.70;2.30;;;23.10;92.20;;;;;;5057049;28;20700;-90
2023/08/11 06:38:19;;;;;;;5.77;2.70;;;23.10;92.30;;;;;;5056717;28;20183;-90
2023/08/11 06:40:45;;;;;;;3.60;2.53;;;23.20;92.40;;;;;;5053040;28;20180;-90
2023/08/11 06:43:11;;;;;;;5.73;2.57;;;23.20;92.10;;;;;;5049361;28;20185;-90
2023/08/11 06:45:36;;;;;;;3.03;2.50;;;23.30;92.10;;;;;;5056360;28;20503;-90
2023/08/11 06:48:02;;;;;;;3.80;2.70;;;23.30;92.00;;;;;;5054343;28;20179;-90
2023/08/11 06:50:28;;;;;;;4.73;2.57;;;23.40;91.80;;;;;;5057922;28;20191;-90
2023/08/11 06:52:54;;;;;;;5.10;2.77;;;23.40;91.60;;;;;;5053402;28;20187;-90
2023/08/11 06:55:20;;;;;;;3.33;2.50;;;23.50;91.60;;;;;;5053392;28;20587;-90
2023/08/11 06:57:45;;;;;;;3.23;2.70;;;23.50;91.40;;;;;;5055778;28;20215;-90
2023/08/11 07:00:11;;;;;;;4.27;2.73;;;23.60;91.20;;;;;;5055036;28;20252;-90
2023/08/11 07:02:37;;;;;;;3.80;2.60;;;23.60;91.00;;;;;;5054708;28;20191;-90
2023/08/11 07:05:04;;;;;;;5.43;2.70;;;23.70;91.20;;;;;;5051569;28;20218;-90
2023/08/11 07:07:29;;;;;;;4.27;2.60;;;23.70;90.60;;;;;;5053579;28;20187;-90
2023/08/11 07:09:55;;;;;;;4.90;2.60;;;23.80;90.60;;;;;;5051476;28;20556;-90
2023/08/11 07:12:21;;;;;;;6.30;2.63;;;23.90;90.40;;;;;;5055231;28;20179;-90
2023/08/11 07:14:47;;;;;;;3.27;2.80;;;24.00;90.40;;;;;;5053113;28;20195;-89
2023/08/11 07:17:12;;;;;;;3.67;2.60;;;24.10;90.40;;;;;;5053566;28;20586;-90
2023/08/11 07:19:38;;;;;;;5.87;2.73;;;24.10;89.70;;;;;;5051831;28;20183;-90
2023/08/11 07:22:05;;;;;;;3.43;2.67;;;24.20;90.20;;;;;;5053277;28;20184;-90
2023/08/11 07:24:30;;;;;;;2.87;2.40;;;24.30;89.70;;;;;;5056656;28;20305;-89
2023/08/11 07:26:56;;;;;;;2.50;2.30;;;24.40;88.40;;;;;;5057980;28;20239;-90
2023/08/11 07:29:22;;;;;;;3.93;2.40;;;24.50;88.00;;;;;;5040356;28;20533;-89
2023/08/11 07:31:48;;;;;;;4.07;2.30;;;24.50;87.40;;;;;;5048669;28;20195;-90
2023/08/11 07:34:13;;;;;;;3.33;2.30;;;24.60;86.80;;;;;;5035956;28;20534;-90
2023/08/11 07:36:40;;;;;;;2.87;2.30;;;24.70;86.60;;;;;;5053253;28;20192;-90
2023/08/11 07:39:09;;;;;;;3.00;2.40;;;24.80;86.20;;;;;;5053482;28;20383;-89
2023/08/11 07:41:38;;;;;;;4.03;2.60;;;24.80;85.70;;;;;;5057320;28;20191;-90
2023/08/11 07:44:04;;;;;;;4.17;2.30;;;24.90;85.90;;;;;;5053561;28;20250;-90
2023/08/11 07:46:30;;;;;;;4.00;2.40;;;25.00;85.10;;;;;;5050111;28;20176;-90
2023/08/11 07:48:56;;;;;;;4.00;2.20;;;25.00;84.60;;;;;;5055282;28;20176;-89
2023/08/11 07:51:22;;;;;;;3.67;2.42;;;25.20;84.50;;;;;;5058911;28;20663;-89
2023/08/11 07:53:49;;;;;;;5.47;2.43;;;25.30;83.80;;;;;;5054534;28;20619;-89
2023/08/11 07:56:15;;;;;;;4.40;2.80;;;25.30;83.20;;;;;;5055400;28;20229;-90
2023/08/11 07:58:41;;;;;;;3.58;2.40;;;25.40;83.00;;;;;;5055071;28;20184;-90
2023/08/11 08:01:08;;;;;;;2.55;2.35;;;25.60;82.10;;;;;;5055467;28;20271;-90
2023/08/11 08:03:35;;;;;;;5.38;2.53;;;25.80;81.30;;;;;;5053665;28;20307;-89
2023/08/11 08:06:04;;;;;;;2.40;2.20;;;26.00;79.60;;;;;;5050929;28;20196;-89
2023/08/11 08:08:31;;;;;;;2.70;2.22;;;26.40;77.20;;;;;;5052225;28;20176;-90
2023/08/11 08:10:57;;;;;;;5.22;2.20;;;26.90;74.30;;;;;;5058959;28;20565;-89
2023/08/11 08:13:22;;;;;;;3.80;2.40;;;27.20;72.90;;;;;;5057517;28;20251;-89
2023/08/11 08:15:49;;;;;;;2.13;1.92;;;27.50;71.40;;;;;;5061486;28;20168;-89
2023/08/11 08:18:15;;;;;;;2.72;2.08;;;27.70;70.00;;;;;;5062667;28;20192;-89
2023/08/11 08:20:40;;;;;;;2.58;2.35;;;27.90;68.70;;;;;;5065435;28;20188;-89
2023/08/11 08:23:07;;;;;;;5.30;2.20;;;28.10;67.90;;;;;;5058166;28;20254;-89
2023/08/11 08:25:33;;;;;;;2.75;2.20;;;28.20;67.30;;;;;;5071944;28;20200;-89
2023/08/11 08:27:59;;;;;;;2.42;2.22;;;28.30;66.20;;;;;;5074852;28;20238;-89
2023/08/11 08:30:25;;;;;;;3.15;2.33;;;28.40;66.00;;;;;;5075422;28;20172;-89
2023/08/11 08:32:50;;;;;;;4.82;2.45;;;28.50;66.00;;;;;;5059916;28;20203;-89
2023/08/11 08:35:16;;;;;;;2.78;2.28;;;28.60;64.80;;;;;;5060658;28;20172;-90
2023/08/11 08:37:42;;;;;;;2.45;2.03;;;28.80;63.90;;;;;;5054151;28;20422;-89
2023/08/11 08:40:08;;;;;;;2.97;2.38;;;28.90;63.50;;;;;;5056515;28;20275;-90
2023/08/11 08:42:34;;;;;;;3.78;2.30;;;29.00;63.20;;;;;;5054297;28;20539;-89
2023/08/11 08:45:01;;;;;;;6.45;2.67;;;29.00;63.20;;;;;;5053364;28;20216;-90
2023/08/11 08:47:26;;;;;;;6.00;2.60;;;29.00;64.80;;;;;;5054855;28;20176;-90
2023/08/11 08:49:54;;;;;;;3.53;2.47;;;29.20;65.20;;;;;;5032566;28;20183;-90
2023/08/11 08:52:21;;;;;;;6.45;2.75;;;29.20;65.10;;;;;;5054954;28;20430;-90
2023/08/11 08:54:47;;;;;;;5.35;2.50;;;29.20;64.40;;;;;;5050894;28;20167;-90
2023/08/11 08:57:13;;;;;;;3.60;2.38;;;29.20;64.60;;;;;;5052361;28;20180;-89
2023/08/11 08:59:39;;;;;;;5.43;2.47;;;29.10;64.20;;;;;;5054572;28;20184;-89
2023/08/11 09:02:06;;;;;;;2.95;2.40;;;28.90;64.80;;;;;;5050788;28;20198;-90
2023/08/11 09:04:33;;;;;;;3.38;2.30;;;28.80;65.10;;;;;;5050713;28;21014;-90
2023/08/11 09:07:00;;;;;;;3.65;2.50;;;28.80;65.30;;;;;;5056134;28;20394;-90
2023/08/11 09:09:27;;;;;;;4.50;2.22;;;28.70;65.50;;;;;;5051694;28;20176;-90
2023/08/11 09:11:54;;;;;;;3.22;2.40;;;28.70;66.10;;;;;;5052903;28;20179;-90
2023/08/11 09:14:21;;;;;;;4.43;2.40;;;28.60;66.80;;;;;;5054887;28;20675;-90
2023/08/11 09:16:50;;;;;;;3.17;2.20;;;28.50;67.50;;;;;;5048054;28;20674;-90
2023/08/11 09:19:16;;;;;;;2.75;2.28;;;28.50;67.50;;;;;;5048133;28;20275;-90
2023/08/11 09:21:45;;;;;;;4.93;2.60;;;28.40;67.90;;;;;;5050014;28;20215;-89
2023/08/11 09:24:13;;;;;;;2.78;2.30;;;28.40;68.00;;;;;;5048565;28;20178;-90
2023/08/11 09:26:44;;;;;;;3.85;2.50;;;28.40;68.90;;;;;;5049020;28;20176;-90
2023/08/11 09:29:10;;;;;;;3.55;2.25;;;28.50;68.70;;;;;;5048450;28;20339;-90
2023/08/11 09:31:36;;;;;;;4.22;2.67;;;28.50;68.40;;;;;;5054422;28;20233;-90
2023/08/11 09:34:12;;;;;;;2.85;2.50;;;28.50;68.60;;;;;;5043612;28;20188;-90
2023/08/11 09:36:38;;;;;;;2.85;2.33;;;28.40;68.70;;;;;;5047679;28;20265;-90
2023/08/11 09:39:10;;;;;;;2.90;2.28;;;28.50;69.00;;;;;;5050865;28;20171;-89
2023/08/11 09:41:42;;;;;;;4.32;2.40;;;28.50;68.60;;;;;;5052833;28;20668;-90
2023/08/11 09:44:09;;;;;;;4.22;2.17;;;28.50;68.30;;;;;;5042200;28;20172;-90
2023/08/11 09:46:38;;;;;;;3.22;2.30;;;28.60;68.20;;;;;;5052062;28;20576;-90
2023/08/11 09:49:05;;;;;;;2.78;2.38;;;28.70;68.20;;;;;;5050133;28;20547;-89
2023/08/11 09:51:34;;;;;;;3.55;2.10;;;28.70;67.90;;;;;;5049143;28;20179;-90
2023/08/11 09:54:06;;;;;;;2.60;2.20;;;28.70;67.90;;;;;;5051664;28;20198;-89
2023/08/11 09:56:37;;;;;;;3.05;2.22;;;28.70;67.70;;;;;;5050861;28;20179;-90
2023/08/11 09:59:04;;;;;;;2.93;2.60;;;28.80;67.80;;;;;;5036748;28;20238;-89
2023/08/11 10:01:35;;;;;;;3.92;2.67;;;28.80;67.90;;;;;;5053793;28;20199;-89
2023/08/11 10:04:07;;;;;;;2.92;2.40;;;28.80;67.90;;;;;;5059910;28;20680;-89
2023/08/11 10:06:35;;;;;;;3.83;2.40;;;28.80;67.80;;;;;;5058895;28;20176;-89
2023/08/11 10:09:03;;;;;;;5.60;2.35;;;28.80;67.80;;;;;;5056681;28;20301;-89
2023/08/11 10:11:33;;;;;;;2.95;2.20;;;28.80;68.00;;;;;;5050262;28;20180;-89
2023/08/11 10:14:02;;;;;;;3.35;2.38;;;28.80;67.90;;;;;;5058791;28;20237;-90
2023/08/11 10:16:28;;;;;;;2.78;2.30;;;28.90;67.80;;;;;;5058688;28;20179;-89
2023/08/11 10:18:56;;;;;;;4.05;2.47;;;28.90;67.90;;;;;;5055841;28;20184;-89
2023/08/11 10:21:24;;;;;;;3.40;2.30;;;28.90;67.60;;;;;;5055897;28;20194;-89
2023/08/11 10:23:51;;;;;;;3.30;2.53;;;28.90;67.60;;;;;;5059726;28;20326;-89
2023/08/11 10:26:16;;;;;;;2.97;2.40;;;29.00;67.50;;;;;;5058382;28;20267;-89
2023/08/11 10:28:43;;;;;;;2.25;2.05;;;29.00;67.50;;;;;;5050828;28;20172;-89
2023/08/11 10:31:09;;;;;;;4.37;2.70;;;29.10;67.40;;;;;;5053165;28;20187;-89
2023/08/11 10:33:35;;;;;;;3.17;2.20;;;29.10;67.40;;;;;;5060181;28;20534;-89
2023/08/11 10:36:01;;;;;;;2.50;2.30;;;29.10;67.30;;;;;;5058006;28;20270;-88
2023/08/11 10:38:27;;;;;;;2.42;2.17;;;29.20;67.10;;;;;;5060101;28;20286;-88
2023/08/11 10:41:16;;;;;;;2.42;2.22;;;29.10;67.20;;;;;;5058579;28;20592;-88
2023/08/11 10:43:47;;;;;;;2.92;2.33;;;29.10;67.20;;;;;;5056136;28;20314;-88
2023/08/11 10:46:23;;;;;;;3.45;2.55;;;29.20;65.30;;;;;;5057965;28;20317;-88
2023/08/11 10:48:54;;;;;;;2.85;2.50;;;29.20;66.20;;;;;;5057203;28;20661;-88
2023/08/11 10:51:27;;;;;;;3.03;2.30;;;29.20;66.00;;;;;;5052618;28;20271;-88
2023/08/11 10:54:18;;;;;;;2.53;2.20;;;29.20;66.00;;;;;;5056888;28;20241;-87
2023/08/11 10:56:45;;;;;;;4.20;2.40;;;29.20;66.30;;;;;;5059396;28;20190;-87
2023/08/11 10:59:17;;;;;;;2.55;2.28;;;29.20;66.20;;;;;;5055681;28;20172;-88
2023/08/11 11:01:47;;;;;;;3.45;2.35;;;29.10;66.30;;;;;;5049985;28;20686;-88
2023/08/11 11:04:14;;;;;;;3.92;2.25;;;29.10;66.60;;;;;;5052223;28;20203;-88
2023/08/11 11:06:43;;;;;;;2.67;2.30;;;29.00;66.80;;;;;;5054342;28;20175;-88
2023/08/11 11:09:10;;;;;;;4.00;2.10;;;29.00;67.00;;;;;;5055431;28;20457;-88
2023/08/11 11:11:36;;;;;;;2.40;2.20;;;29.00;67.20;;;;;;5054500;28;20175;-88
2023/08/11 11:14:09;;;;;;;2.70;2.40;;;29.00;67.50;;;;;;5048605;28;20176;-87
2023/08/11 11:16:36;;;;;;;3.65;2.30;;;29.00;67.80;;;;;;5054079;28;20192;-87
2023/08/11 11:19:07;;;;;;;2.42;2.22;;;29.00;67.80;;;;;;5060391;28;20497;-88
2023/08/11 11:21:33;;;;;;;2.75;2.40;;;29.00;68.10;;;;;;5032724;28;20196;-88
2023/08/11 11:24:00;;;;;;;2.58;2.25;;;28.90;68.10;;;;;;5054505;28;20175;-88
2023/08/11 11:26:30;;;;;;;2.13;1.92;;;28.90;68.20;;;;;;5051149;28;20546;-88
2023/08/11 11:28:59;;;;;;;3.20;2.03;;;28.90;68.40;;;;;;5051065;28;20183;-87
2023/08/11 11:31:28;;;;;;;3.15;2.05;;;28.90;68.50;;;;;;5051333;28;20394;-88
2023/08/11 11:33:55;;;;;;;4.53;2.40;;;28.90;68.70;;;;;;5052541;28;20631;-88
2023/08/11 11:36:23;;;;;;;3.17;2.35;;;28.90;68.80;;;;;;5055537;28;20232;-88
2023/08/11 11:38:49;;;;;;;2.20;2.00;;;29.00;68.70;;;;;;5042452;28;20179;-88
2023/08/11 11:41:17;;;;;;;2.22;2.03;;;28.90;68.90;;;;;;5049869;28;20584;-88
2023/08/11 11:43:45;;;;;;;2.80;2.10;;;28.90;68.90;;;;;;5049554;28;20212;-88
2023/08/11 11:46:14;;;;;;;2.38;2.17;;;28.90;69.10;;;;;;5046933;28;20716;-88
2023/08/11 11:48:44;;;;;;;3.30;2.20;;;28.80;69.20;;;;;;5056016;28;20192;-88
2023/08/11 11:51:11;;;;;;;2.47;2.10;;;28.80;69.50;;;;;;5047432;28;20180;-88
2023/08/11 11:53:38;;;;;;;2.42;2.00;;;28.80;69.80;;;;;;5043221;28;20175;-88
2023/08/11 11:56:04;;;;;;;3.97;2.17;;;28.80;70.20;;;;;;5042261;28;20576;-87
2023/08/11 11:58:33;;;;;;;3.22;2.30;;;28.80;70.40;;;;;;5047742;28;20192;-88
2023/08/11 12:01:10;;;;;;;2.53;2.15;;;28.80;70.70;;;;;;5050035;28;20580;-88
2023/08/11 12:03:36;;;;;;;3.28;2.05;;;28.80;71.00;;;;;;5051803;28;20297;-88
2023/08/11 12:06:05;;;;;;;3.55;2.20;;;28.80;71.00;;;;;;5050184;28;20214;-87
2023/08/11 12:08:32;;;;;;;3.20;2.53;;;28.80;71.00;;;;;;5049079;28;20291;-88
2023/08/11 12:11:00;;;;;;;2.20;2.00;;;28.80;71.00;;;;;;5051808;28;20218;-87
2023/08/11 12:13:25;;;;;;;2.30;1.98;;;28.80;70.50;;;;;;5046433;28;20179;-87
2023/08/11 12:15:52;;;;;;;2.20;2.00;;;28.80;70.90;;;;;;5049460;28;20179;-88
2023/08/11 12:18:19;;;;;;;2.20;2.00;;;28.80;71.00;;;;;;5043952;28;20247;-87
2023/08/11 12:20:45;;;;;;;2.10;1.90;;;28.80;71.00;;;;;;5057505;28;20292;-86
2023/08/11 12:23:10;;;;;;;2.67;2.10;;;28.80;71.30;;;;;;5053268;28;20582;-87
2023/08/11 12:25:36;;;;;;;2.58;2.00;;;28.70;71.50;;;;;;5051223;28;20226;-87
2023/08/11 12:28:02;;;;;;;2.13;1.90;;;28.70;71.70;;;;;;5056401;28;20180;-86
2023/08/11 12:30:28;;;;;;;3.80;2.08;;;28.70;71.50;;;;;;5054150;28;20218;-87
2023/08/11 12:32:55;;;;;;;3.60;2.30;;;28.80;71.70;;;;;;5052189;28;20182;-87
2023/08/11 12:35:22;;;;;;;3.15;2.10;;;28.70;71.80;;;;;;5054772;28;20179;-88
2023/08/11 12:37:47;;;;;;;6.15;2.65;;;28.70;71.90;;;;;;5049916;28;20179;-86
2023/08/11 12:40:14;;;;;;;2.67;2.10;;;28.70;63.00;;;;;;5051249;28;20218;-87
2023/08/11 12:42:40;;;;;;;2.58;2.20;;;28.70;70.00;;;;;;5056713;28;20279;-87
2023/08/11 12:45:10;;;;;;;3.97;2.13;;;28.70;71.00;;;;;;5053519;28;20235;-88
2023/08/11 12:47:36;;;;;;;2.40;2.20;;;28.70;71.40;;;;;;5053205;28;20171;-87